sensor_id;sensor_type;location;lat;lon;timestamp;pressure;altitude;pressure_sealevel;temperature;humidity
70200;BME280;57587;55.688;37.600;2022-09-28T00:01:09;98401.63;;;10.44;65.98
70200;BME280;57587;55.688;37.600;2022-09-28T00:03:39;98403.25;;;10.45;66.21
70200;BME280;57587;55.688;37.600;2022-09-28T00:06:08;98408.84;;;10.37;66.65
70200;BME280;57587;55.688;37.600;2022-09-28T00:08:36;98405.38;;;10.30;66.84
70200;BME280;57587;55.688;37.600;2022-09-28T00:11:05;98402.06;;;10.28;67.03
70200;BME280;57587;55.688;37.600;2022-09-28T00:13:33;98390.97;;;10.31;66.92
70200;BME280;57587;55.688;37.600;2022-09-28T00:16:06;98393.03;;;10.29;67.17
70200;BME280;57587;55.688;37.600;2022-09-28T00:18:34;98382.75;;;10.26;67.05
70200;BME280;57587;55.688;37.600;2022-09-28T00:21:23;98384.22;;;10.28;66.78
70200;BME280;57587;55.688;37.600;2022-09-28T00:23:52;98374.91;;;10.31;67.40
70200;BME280;57587;55.688;37.600;2022-09-28T00:26:49;98375.56;;;10.26;67.32
70200;BME280;57587;55.688;37.600;2022-09-28T00:29:24;98375.34;;;10.28;67.92
70200;BME280;57587;55.688;37.600;2022-09-28T00:31:55;98372.06;;;10.19;67.51
70200;BME280;57587;55.688;37.600;2022-09-28T00:34:30;98367.31;;;10.21;68.09
70200;BME280;57587;55.688;37.600;2022-09-28T00:36:58;98360.78;;;10.10;67.78
70200;BME280;57587;55.688;37.600;2022-09-28T00:39:25;98362.78;;;10.22;68.05
70200;BME280;57587;55.688;37.600;2022-09-28T00:41:53;98360.75;;;10.24;68.29
70200;BME280;57587;55.688;37.600;2022-09-28T00:44:48;98357.69;;;10.27;68.32
70200;BME280;57587;55.688;37.600;2022-09-28T00:50:23;98345.94;;;10.28;67.75
70200;BME280;57587;55.688;37.600;2022-09-28T00:53:14;98345.13;;;10.27;68.50
70200;BME280;57587;55.688;37.600;2022-09-28T00:55:51;98350.44;;;10.34;68.00
70200;BME280;57587;55.688;37.600;2022-09-28T00:58:23;98346.56;;;10.23;68.01
70200;BME280;57587;55.688;37.600;2022-09-28T01:00:54;98343.50;;;10.20;68.28
70200;BME280;57587;55.688;37.600;2022-09-28T01:03:24;98345.78;;;10.16;68.24
70200;BME280;57587;55.688;37.600;2022-09-28T01:05:52;98337.31;;;10.19;68.74
70200;BME280;57587;55.688;37.600;2022-09-28T01:08:21;98331.75;;;10.27;68.42
70200;BME280;57587;55.688;37.600;2022-09-28T01:10:50;98327.84;;;10.30;68.61
70200;BME280;57587;55.688;37.600;2022-09-28T01:13:19;98321.88;;;10.28;68.29
70200;BME280;57587;55.688;37.600;2022-09-28T01:20:59;98311.56;;;10.25;68.61
70200;BME280;57587;55.688;37.600;2022-09-28T01:27:41;98309.31;;;10.22;68.54
70200;BME280;57587;55.688;37.600;2022-09-28T01:30:15;98303.97;;;10.22;68.65
70200;BME280;57587;55.688;37.600;2022-09-28T01:32:51;98294.53;;;10.26;67.94
70200;BME280;57587;55.688;37.600;2022-09-28T01:35:34;98285.50;;;10.27;68.58
70200;BME280;57587;55.688;37.600;2022-09-28T01:38:07;98287.75;;;10.30;68.35
70200;BME280;57587;55.688;37.600;2022-09-28T01:40:36;98284.88;;;10.31;68.16
70200;BME280;57587;55.688;37.600;2022-09-28T01:43:07;98286.28;;;10.34;68.13
70200;BME280;57587;55.688;37.600;2022-09-28T01:45:46;98282.81;;;10.27;68.55
70200;BME280;57587;55.688;37.600;2022-09-28T01:48:20;98282.81;;;10.20;68.60
70200;BME280;57587;55.688;37.600;2022-09-28T01:50:53;98280.34;;;10.25;68.63
70200;BME280;57587;55.688;37.600;2022-09-28T01:53:38;98280.16;;;10.27;68.80
70200;BME280;57587;55.688;37.600;2022-09-28T01:56:17;98277.47;;;10.27;68.72
70200;BME280;57587;55.688;37.600;2022-09-28T01:59:06;98273.75;;;10.28;68.37
70200;BME280;57587;55.688;37.600;2022-09-28T02:01:43;98267.78;;;10.26;68.65
70200;BME280;57587;55.688;37.600;2022-09-28T02:04:20;98258.97;;;10.19;67.84
70200;BME280;57587;55.688;37.600;2022-09-28T02:06:55;98258.81;;;10.13;68.55
70200;BME280;57587;55.688;37.600;2022-09-28T02:09:34;98255.72;;;10.16;69.14
70200;BME280;57587;55.688;37.600;2022-09-28T02:12:09;98254.31;;;10.07;68.71
70200;BME280;57587;55.688;37.600;2022-09-28T02:14:40;98249.94;;;10.20;68.39
70200;BME280;57587;55.688;37.600;2022-09-28T02:17:10;98239.25;;;10.20;69.31
70200;BME280;57587;55.688;37.600;2022-09-28T02:19:38;98235.97;;;10.18;68.30
70200;BME280;57587;55.688;37.600;2022-09-28T02:22:27;98234.47;;;10.22;68.86
70200;BME280;57587;55.688;37.600;2022-09-28T02:25:10;98232.84;;;10.21;68.69
70200;BME280;57587;55.688;37.600;2022-09-28T02:27:59;98233.25;;;10.24;68.09
70200;BME280;57587;55.688;37.600;2022-09-28T02:30:32;98228.31;;;10.28;68.78
70200;BME280;57587;55.688;37.600;2022-09-28T02:33:10;98225.88;;;10.26;68.07
70200;BME280;57587;55.688;37.600;2022-09-28T02:35:40;98221.53;;;10.25;68.19
70200;BME280;57587;55.688;37.600;2022-09-28T02:38:12;98217.19;;;10.31;68.63
70200;BME280;57587;55.688;37.600;2022-09-28T02:40:42;98218.88;;;10.25;68.44
70200;BME280;57587;55.688;37.600;2022-09-28T02:57:23;98198.91;;;10.21;69.14
70200;BME280;57587;55.688;37.600;2022-09-28T03:05:33;98193.13;;;10.31;68.74
70200;BME280;57587;55.688;37.600;2022-09-28T03:11:00;98191.06;;;10.33;68.32
70200;BME280;57587;55.688;37.600;2022-09-28T03:13:31;98198.28;;;10.32;68.11
70200;BME280;57587;55.688;37.600;2022-09-28T03:16:11;98196.25;;;10.28;68.03
70200;BME280;57587;55.688;37.600;2022-09-28T03:18:40;98186.59;;;10.27;68.64
70200;BME280;57587;55.688;37.600;2022-09-28T03:21:08;98193.75;;;10.33;68.95
70200;BME280;57587;55.688;37.600;2022-09-28T03:23:37;98187.97;;;10.36;68.51
70200;BME280;57587;55.688;37.600;2022-09-28T03:26:07;98183.81;;;10.40;68.69
70200;BME280;57587;55.688;37.600;2022-09-28T03:28:34;98182.75;;;10.48;68.63
70200;BME280;57587;55.688;37.600;2022-09-28T03:31:02;98176.75;;;10.52;67.97
70200;BME280;57587;55.688;37.600;2022-09-28T03:33:30;98179.03;;;10.49;68.07
70200;BME280;57587;55.688;37.600;2022-09-28T03:35:57;98178.44;;;10.47;68.62
70200;BME280;57587;55.688;37.600;2022-09-28T03:38:24;98178.22;;;10.48;68.04
70200;BME280;57587;55.688;37.600;2022-09-28T03:40:54;98180.03;;;10.54;68.12
70200;BME280;57587;55.688;37.600;2022-09-28T03:43:22;98171.94;;;10.61;68.40
70200;BME280;57587;55.688;37.600;2022-09-28T03:45:53;98156.28;;;10.65;68.21
70200;BME280;57587;55.688;37.600;2022-09-28T03:48:23;98159.56;;;10.67;67.69
70200;BME280;57587;55.688;37.600;2022-09-28T03:50:56;98159.81;;;10.58;67.56
70200;BME280;57587;55.688;37.600;2022-09-28T03:53:24;98150.53;;;10.61;67.99
70200;BME280;57587;55.688;37.600;2022-09-28T03:55:52;98147.25;;;10.59;67.76
70200;BME280;57587;55.688;37.600;2022-09-28T03:58:20;98150.78;;;10.59;68.00
70200;BME280;57587;55.688;37.600;2022-09-28T04:00:48;98139.69;;;10.56;68.05
70200;BME280;57587;55.688;37.600;2022-09-28T04:03:15;98138.28;;;10.53;67.56
70200;BME280;57587;55.688;37.600;2022-09-28T04:05:51;98133.50;;;10.55;67.88
70200;BME280;57587;55.688;37.600;2022-09-28T04:08:18;98137.59;;;10.58;67.91
70200;BME280;57587;55.688;37.600;2022-09-28T04:10:46;98133.84;;;10.66;68.59
70200;BME280;57587;55.688;37.600;2022-09-28T04:13:13;98131.19;;;10.66;68.31
70200;BME280;57587;55.688;37.600;2022-09-28T04:15:41;98127.47;;;10.67;67.63
70200;BME280;57587;55.688;37.600;2022-09-28T04:18:10;98132.13;;;10.71;67.70
70200;BME280;57587;55.688;37.600;2022-09-28T04:21:17;98126.94;;;10.76;67.63
70200;BME280;57587;55.688;37.600;2022-09-28T04:23:50;98121.22;;;10.73;67.97
70200;BME280;57587;55.688;37.600;2022-09-28T04:26:22;98119.25;;;10.61;67.63
70200;BME280;57587;55.688;37.600;2022-09-28T04:28:50;98117.19;;;10.64;68.02
70200;BME280;57587;55.688;37.600;2022-09-28T04:31:54;98122.84;;;10.74;67.68
70200;BME280;57587;55.688;37.600;2022-09-28T04:34:31;98111.84;;;10.64;68.01
70200;BME280;57587;55.688;37.600;2022-09-28T04:37:04;98114.16;;;10.60;68.09
70200;BME280;57587;55.688;37.600;2022-09-28T04:39:31;98116.59;;;10.61;67.74
70200;BME280;57587;55.688;37.600;2022-09-28T04:41:58;98110.16;;;10.69;68.04
70200;BME280;57587;55.688;37.600;2022-09-28T04:44:26;98116.69;;;10.73;67.98
70200;BME280;57587;55.688;37.600;2022-09-28T04:46:58;98108.59;;;10.80;67.48
70200;BME280;57587;55.688;37.600;2022-09-28T04:49:30;98106.16;;;10.78;67.02
70200;BME280;57587;55.688;37.600;2022-09-28T04:52:10;98111.88;;;10.82;67.13
70200;BME280;57587;55.688;37.600;2022-09-28T04:54:44;98109.28;;;10.75;67.41
70200;BME280;57587;55.688;37.600;2022-09-28T04:57:11;98108.41;;;10.81;67.43
70200;BME280;57587;55.688;37.600;2022-09-28T04:59:38;98107.50;;;10.88;66.90
70200;BME280;57587;55.688;37.600;2022-09-28T05:02:05;98100.50;;;10.87;66.94
70200;BME280;57587;55.688;37.600;2022-09-28T05:04:53;98097.69;;;10.81;67.13
70200;BME280;57587;55.688;37.600;2022-09-28T05:07:35;98102.38;;;10.86;67.31
70200;BME280;57587;55.688;37.600;2022-09-28T05:10:04;98099.84;;;10.91;67.03
70200;BME280;57587;55.688;37.600;2022-09-28T05:12:32;98099.25;;;10.89;67.84
70200;BME280;57587;55.688;37.600;2022-09-28T05:14:59;98094.50;;;10.91;67.00
70200;BME280;57587;55.688;37.600;2022-09-28T05:17:28;98091.81;;;10.91;67.58
70200;BME280;57587;55.688;37.600;2022-09-28T05:20:05;98083.56;;;10.93;67.16
70200;BME280;57587;55.688;37.600;2022-09-28T05:22:33;98078.13;;;10.99;67.16
70200;BME280;57587;55.688;37.600;2022-09-28T05:25:00;98076.78;;;11.08;67.57
70200;BME280;57587;55.688;37.600;2022-09-28T05:27:36;98081.69;;;11.12;66.51
70200;BME280;57587;55.688;37.600;2022-09-28T05:30:20;98074.88;;;11.16;66.64
70200;BME280;57587;55.688;37.600;2022-09-28T05:33:21;98074.19;;;11.20;66.67
70200;BME280;57587;55.688;37.600;2022-09-28T05:35:55;98080.34;;;11.21;66.59
70200;BME280;57587;55.688;37.600;2022-09-28T05:38:28;98078.28;;;11.23;66.87
70200;BME280;57587;55.688;37.600;2022-09-28T05:40:56;98077.84;;;11.26;66.74
70200;BME280;57587;55.688;37.600;2022-09-28T05:43:23;98075.78;;;11.28;66.36
70200;BME280;57587;55.688;37.600;2022-09-28T05:45:50;98061.78;;;11.26;66.42
70200;BME280;57587;55.688;37.600;2022-09-28T05:48:21;98060.72;;;11.27;66.07
70200;BME280;57587;55.688;37.600;2022-09-28T05:50:53;98058.34;;;11.37;66.23
70200;BME280;57587;55.688;37.600;2022-09-28T05:53:20;98055.44;;;11.39;66.40
70200;BME280;57587;55.688;37.600;2022-09-28T05:55:47;98057.22;;;11.45;67.02
70200;BME280;57587;55.688;37.600;2022-09-28T05:58:15;98056.19;;;11.46;66.53
70200;BME280;57587;55.688;37.600;2022-09-28T06:00:42;98052.81;;;11.50;66.89
70200;BME280;57587;55.688;37.600;2022-09-28T06:03:12;98049.22;;;11.57;66.11
70200;BME280;57587;55.688;37.600;2022-09-28T06:05:39;98042.47;;;11.54;66.09
70200;BME280;57587;55.688;37.600;2022-09-28T06:08:08;98050.41;;;11.61;66.03
70200;BME280;57587;55.688;37.600;2022-09-28T06:10:41;98042.16;;;11.62;66.35
70200;BME280;57587;55.688;37.600;2022-09-28T06:13:08;98038.19;;;11.65;66.08
70200;BME280;57587;55.688;37.600;2022-09-28T06:15:37;98036.91;;;11.67;65.68
70200;BME280;57587;55.688;37.600;2022-09-28T06:18:07;98040.78;;;11.71;66.10
70200;BME280;57587;55.688;37.600;2022-09-28T06:20:39;98039.06;;;11.77;65.72
70200;BME280;57587;55.688;37.600;2022-09-28T06:23:12;98049.47;;;11.85;65.66
70200;BME280;57587;55.688;37.600;2022-09-28T06:25:40;98048.09;;;11.94;65.74
70200;BME280;57587;55.688;37.600;2022-09-28T06:28:12;98049.28;;;11.98;65.48
70200;BME280;57587;55.688;37.600;2022-09-28T06:30:40;98049.84;;;12.00;64.99
70200;BME280;57587;55.688;37.600;2022-09-28T06:33:12;98050.66;;;12.01;65.14
70200;BME280;57587;55.688;37.600;2022-09-28T06:35:40;98053.00;;;12.09;64.73
70200;BME280;57587;55.688;37.600;2022-09-28T06:38:09;98056.75;;;12.08;64.74
70200;BME280;57587;55.688;37.600;2022-09-28T06:40:36;98059.19;;;12.10;64.24
70200;BME280;57587;55.688;37.600;2022-09-28T06:43:08;98056.50;;;12.10;64.98
70200;BME280;57587;55.688;37.600;2022-09-28T06:45:56;98057.59;;;12.20;64.04
70200;BME280;57587;55.688;37.600;2022-09-28T06:48:50;98051.97;;;12.22;63.82
70200;BME280;57587;55.688;37.600;2022-09-28T06:51:37;98046.16;;;12.25;63.93
70200;BME280;57587;55.688;37.600;2022-09-28T06:54:30;98030.31;;;12.23;64.77
70200;BME280;57587;55.688;37.600;2022-09-28T06:57:29;98042.34;;;12.33;64.08
70200;BME280;57587;55.688;37.600;2022-09-28T06:59:56;98044.31;;;12.37;63.98
70200;BME280;57587;55.688;37.600;2022-09-28T07:02:25;98038.13;;;12.37;63.74
70200;BME280;57587;55.688;37.600;2022-09-28T07:05:16;98037.88;;;12.38;64.08
70200;BME280;57587;55.688;37.600;2022-09-28T07:08:03;98036.13;;;12.32;63.98
70200;BME280;57587;55.688;37.600;2022-09-28T07:10:45;98035.78;;;12.29;63.99
70200;BME280;57587;55.688;37.600;2022-09-28T07:13:27;98025.66;;;12.31;64.24
70200;BME280;57587;55.688;37.600;2022-09-28T07:16:14;98033.34;;;12.39;63.71
70200;BME280;57587;55.688;37.600;2022-09-28T07:18:41;98029.97;;;12.43;63.92
70200;BME280;57587;55.688;37.600;2022-09-28T07:21:08;98033.81;;;12.48;63.38
70200;BME280;57587;55.688;37.600;2022-09-28T07:23:48;98023.66;;;12.50;63.05
70200;BME280;57587;55.688;37.600;2022-09-28T07:26:22;98025.06;;;12.52;63.09
70200;BME280;57587;55.688;37.600;2022-09-28T07:29:13;98032.88;;;12.54;63.49
70200;BME280;57587;55.688;37.600;2022-09-28T07:31:55;98035.06;;;12.57;62.88
70200;BME280;57587;55.688;37.600;2022-09-28T07:34:27;98031.47;;;12.63;63.26
70200;BME280;57587;55.688;37.600;2022-09-28T07:37:10;98034.38;;;12.73;62.77
70200;BME280;57587;55.688;37.600;2022-09-28T07:39:38;98032.53;;;12.74;63.10
70200;BME280;57587;55.688;37.600;2022-09-28T07:42:24;98035.75;;;12.76;63.05
70200;BME280;57587;55.688;37.600;2022-09-28T07:44:58;98032.38;;;12.80;62.66
70200;BME280;57587;55.688;37.600;2022-09-28T07:47:25;98041.59;;;12.84;63.11
70200;BME280;57587;55.688;37.600;2022-09-28T07:50:38;98026.19;;;12.91;63.08
70200;BME280;57587;55.688;37.600;2022-09-28T07:53:24;98026.53;;;12.95;63.06
70200;BME280;57587;55.688;37.600;2022-09-28T07:56:27;98030.16;;;13.01;62.79
70200;BME280;57587;55.688;37.600;2022-09-28T07:59:12;98028.03;;;13.03;62.16
70200;BME280;57587;55.688;37.600;2022-09-28T08:02:02;98021.69;;;13.09;62.19
70200;BME280;57587;55.688;37.600;2022-09-28T08:04:29;98022.84;;;13.13;62.00
70200;BME280;57587;55.688;37.600;2022-09-28T08:06:56;98021.34;;;13.17;61.87
70200;BME280;57587;55.688;37.600;2022-09-28T08:09:25;98018.50;;;13.24;61.68
70200;BME280;57587;55.688;37.600;2022-09-28T08:12:11;98017.59;;;13.30;60.99
70200;BME280;57587;55.688;37.600;2022-09-28T08:14:56;98010.34;;;13.30;60.71
70200;BME280;57587;55.688;37.600;2022-09-28T08:17:46;98015.81;;;13.35;60.50
70200;BME280;57587;55.688;37.600;2022-09-28T08:20:16;98014.88;;;13.42;60.70
70200;BME280;57587;55.688;37.600;2022-09-28T08:23:06;98016.00;;;13.46;60.53
70200;BME280;57587;55.688;37.600;2022-09-28T08:25:35;98023.47;;;13.44;61.34
70200;BME280;57587;55.688;37.600;2022-09-28T08:28:06;98021.28;;;13.41;61.06
70200;BME280;57587;55.688;37.600;2022-09-28T08:30:39;98014.88;;;13.42;60.98
70200;BME280;57587;55.688;37.600;2022-09-28T08:33:33;98010.16;;;13.49;60.69
70200;BME280;57587;55.688;37.600;2022-09-28T08:36:19;98018.78;;;13.51;60.78
70200;BME280;57587;55.688;37.600;2022-09-28T08:39:05;98022.03;;;13.53;60.43
70200;BME280;57587;55.688;37.600;2022-09-28T08:44:39;98009.28;;;13.60;60.28
70200;BME280;57587;55.688;37.600;2022-09-28T08:47:45;98014.25;;;13.68;60.23
70200;BME280;57587;55.688;37.600;2022-09-28T08:50:58;98001.00;;;13.78;59.42
70200;BME280;57587;55.688;37.600;2022-09-28T08:56:51;98000.09;;;13.90;59.23
70200;BME280;57587;55.688;37.600;2022-09-28T08:59:28;97995.91;;;13.94;59.56
70200;BME280;57587;55.688;37.600;2022-09-28T09:02:19;98004.94;;;14.04;59.13
70200;BME280;57587;55.688;37.600;2022-09-28T09:04:51;98000.13;;;14.06;59.94
70200;BME280;57587;55.688;37.600;2022-09-28T09:13:13;98010.22;;;14.16;59.14
70200;BME280;57587;55.688;37.600;2022-09-28T09:18:35;98016.00;;;14.08;59.84
70200;BME280;57587;55.688;37.600;2022-09-28T09:27:38;98017.66;;;14.09;59.39
70200;BME280;57587;55.688;37.600;2022-09-28T09:30:12;98016.00;;;14.08;58.85
70200;BME280;57587;55.688;37.600;2022-09-28T09:33:09;98020.34;;;14.09;59.11
70200;BME280;57587;55.688;37.600;2022-09-28T09:39:12;98027.66;;;13.97;59.88
70200;BME280;57587;55.688;37.600;2022-09-28T09:45:28;98023.50;;;13.89;59.81
70200;BME280;57587;55.688;37.600;2022-09-28T09:48:39;98021.06;;;13.88;60.30
70200;BME280;57587;55.688;37.600;2022-09-28T09:53:56;98024.13;;;13.79;60.29
70200;BME280;57587;55.688;37.600;2022-09-28T09:56:39;98019.16;;;13.71;60.61
70200;BME280;57587;55.688;37.600;2022-09-28T09:59:36;98011.19;;;13.76;60.83
70200;BME280;57587;55.688;37.600;2022-09-28T10:02:29;98019.19;;;13.88;60.76
70200;BME280;57587;55.688;37.600;2022-09-28T10:05:21;98022.34;;;13.85;60.37
70200;BME280;57587;55.688;37.600;2022-09-28T10:10:37;98020.31;;;13.75;60.51
70200;BME280;57587;55.688;37.600;2022-09-28T10:13:10;98027.53;;;13.75;60.73
70200;BME280;57587;55.688;37.600;2022-09-28T10:15:42;98032.50;;;13.66;60.94
70200;BME280;57587;55.688;37.600;2022-09-28T10:18:21;98030.31;;;13.63;60.72
70200;BME280;57587;55.688;37.600;2022-09-28T10:21:11;98027.50;;;13.58;60.04
70200;BME280;57587;55.688;37.600;2022-09-28T10:23:50;98027.66;;;13.51;61.13
70200;BME280;57587;55.688;37.600;2022-09-28T10:26:28;98030.34;;;13.51;61.57
70200;BME280;57587;55.688;37.600;2022-09-28T10:28:59;98031.66;;;13.49;61.54
70200;BME280;57587;55.688;37.600;2022-09-28T10:31:36;98025.13;;;13.45;61.17
70200;BME280;57587;55.688;37.600;2022-09-28T10:34:10;98027.34;;;13.48;61.22
70200;BME280;57587;55.688;37.600;2022-09-28T10:36:57;98026.28;;;13.49;61.72
70200;BME280;57587;55.688;37.600;2022-09-28T10:39:35;98026.53;;;13.47;61.47
70200;BME280;57587;55.688;37.600;2022-09-28T10:42:29;98025.94;;;13.45;61.31
70200;BME280;57587;55.688;37.600;2022-09-28T10:45:03;98016.59;;;13.48;60.95
70200;BME280;57587;55.688;37.600;2022-09-28T10:47:45;98024.25;;;13.56;61.01
70200;BME280;57587;55.688;37.600;2022-09-28T10:50:20;98022.88;;;13.53;61.07
70200;BME280;57587;55.688;37.600;2022-09-28T10:53:09;98020.25;;;13.58;61.33
70200;BME280;57587;55.688;37.600;2022-09-28T10:56:19;98018.38;;;13.59;61.24
70200;BME280;57587;55.688;37.600;2022-09-28T10:58:52;98017.03;;;13.56;60.79
70200;BME280;57587;55.688;37.600;2022-09-28T11:01:30;98014.88;;;13.58;61.18
70200;BME280;57587;55.688;37.600;2022-09-28T11:04:02;98011.81;;;13.67;60.87
70200;BME280;57587;55.688;37.600;2022-09-28T11:06:34;98007.84;;;13.69;60.86
70200;BME280;57587;55.688;37.600;2022-09-28T11:09:06;98007.09;;;13.74;60.67
70200;BME280;57587;55.688;37.600;2022-09-28T11:11:40;98009.34;;;13.65;60.38
70200;BME280;57587;55.688;37.600;2022-09-28T11:14:31;98020.69;;;13.67;60.77
70200;BME280;57587;55.688;37.600;2022-09-28T11:17:30;98027.06;;;13.78;60.33
70200;BME280;57587;55.688;37.600;2022-09-28T11:20:01;98016.72;;;13.87;60.56
70200;BME280;57587;55.688;37.600;2022-09-28T11:23:17;98027.00;;;13.90;60.68
70200;BME280;57587;55.688;37.600;2022-09-28T11:25:56;98021.63;;;13.90;60.53
70200;BME280;57587;55.688;37.600;2022-09-28T11:28:29;98021.94;;;13.93;59.91
70200;BME280;57587;55.688;37.600;2022-09-28T11:31:02;98027.66;;;13.97;59.83
70200;BME280;57587;55.688;37.600;2022-09-28T11:33:46;98044.13;;;14.00;59.53
70200;BME280;57587;55.688;37.600;2022-09-28T11:37:01;98037.94;;;14.00;59.68
70200;BME280;57587;55.688;37.600;2022-09-28T11:40:05;98027.84;;;14.07;59.87
70200;BME280;57587;55.688;37.600;2022-09-28T11:48:13;98041.03;;;14.25;59.59
70200;BME280;57587;55.688;37.600;2022-09-28T11:50:57;98031.41;;;14.29;58.77
70200;BME280;57587;55.688;37.600;2022-09-28T11:53:44;98036.31;;;14.33;58.93
70200;BME280;57587;55.688;37.600;2022-09-28T11:56:27;98041.38;;;14.29;58.96
70200;BME280;57587;55.688;37.600;2022-09-28T11:59:06;98041.53;;;14.22;59.08
70200;BME280;57587;55.688;37.600;2022-09-28T12:04:16;98036.81;;;14.13;59.27
70200;BME280;57587;55.688;37.600;2022-09-28T12:06:52;98035.81;;;14.02;59.35
70200;BME280;57587;55.688;37.600;2022-09-28T12:09:39;98041.66;;;13.99;58.85
70200;BME280;57587;55.688;37.600;2022-09-28T12:12:28;98047.19;;;13.92;59.33
70200;BME280;57587;55.688;37.600;2022-09-28T12:16:04;98041.34;;;13.95;59.32
70200;BME280;57587;55.688;37.600;2022-09-28T12:18:53;98050.91;;;14.03;59.32
70200;BME280;57587;55.688;37.600;2022-09-28T12:24:11;98041.75;;;14.04;58.91
70200;BME280;57587;55.688;37.600;2022-09-28T12:34:51;98043.91;;;14.19;58.46
70200;BME280;57587;55.688;37.600;2022-09-28T12:37:40;98048.53;;;14.23;58.13
70200;BME280;57587;55.688;37.600;2022-09-28T12:45:39;98051.81;;;14.25;58.70
70200;BME280;57587;55.688;37.600;2022-09-28T12:48:49;98048.94;;;14.32;58.24
70200;BME280;57587;55.688;37.600;2022-09-28T12:51:51;98032.22;;;14.30;57.74
70200;BME280;57587;55.688;37.600;2022-09-28T13:00:28;98043.47;;;14.27;58.40
70200;BME280;57587;55.688;37.600;2022-09-28T13:03:27;98043.16;;;14.23;58.25
70200;BME280;57587;55.688;37.600;2022-09-28T13:25:29;98043.47;;;14.10;58.21
70200;BME280;57587;55.688;37.600;2022-09-28T13:28:05;98047.94;;;14.04;58.48
70200;BME280;57587;55.688;37.600;2022-09-28T13:30:42;98052.63;;;14.09;58.59
70200;BME280;57587;55.688;37.600;2022-09-28T13:33:32;98015.91;;;13.86;58.41
70200;BME280;57587;55.688;37.600;2022-09-28T13:45:30;98032.72;;;14.10;58.79
70200;BME280;57587;55.688;37.600;2022-09-28T13:48:19;98035.56;;;14.03;58.07
70200;BME280;57587;55.688;37.600;2022-09-28T13:56:55;98035.63;;;13.92;59.67
70200;BME280;57587;55.688;37.600;2022-09-28T13:59:35;98048.34;;;13.96;59.44
70200;BME280;57587;55.688;37.600;2022-09-28T14:02:34;98040.53;;;13.95;59.42
70200;BME280;57587;55.688;37.600;2022-09-28T14:10:56;98048.66;;;13.83;58.80
70200;BME280;57587;55.688;37.600;2022-09-28T14:16:47;98051.97;;;13.73;58.30
70200;BME280;57587;55.688;37.600;2022-09-28T14:19:31;98060.03;;;13.73;58.33
70200;BME280;57587;55.688;37.600;2022-09-28T14:25:30;98060.41;;;13.65;59.81
70200;BME280;57587;55.688;37.600;2022-09-28T14:31:20;98061.97;;;13.61;60.17
70200;BME280;57587;55.688;37.600;2022-09-28T14:34:00;98060.34;;;13.60;60.11
70200;BME280;57587;55.688;37.600;2022-09-28T14:36:49;98069.91;;;13.56;59.56
70200;BME280;57587;55.688;37.600;2022-09-28T14:39:44;98069.25;;;13.49;59.92
70200;BME280;57587;55.688;37.600;2022-09-28T14:42:30;98077.22;;;13.44;60.12
70200;BME280;57587;55.688;37.600;2022-09-28T14:47:40;98080.97;;;13.43;60.57
70200;BME280;57587;55.688;37.600;2022-09-28T14:50:27;98083.31;;;13.39;59.86
70200;BME280;57587;55.688;37.600;2022-09-28T14:53:09;98091.38;;;13.39;60.88
70200;BME280;57587;55.688;37.600;2022-09-28T14:55:44;98096.41;;;13.35;60.65
70200;BME280;57587;55.688;37.600;2022-09-28T14:58:19;98095.22;;;13.31;60.19
70200;BME280;57587;55.688;37.600;2022-09-28T15:00:51;98098.38;;;13.28;60.66
70200;BME280;57587;55.688;37.600;2022-09-28T15:03:21;98106.91;;;13.25;60.79
70200;BME280;57587;55.688;37.600;2022-09-28T15:05:51;98111.47;;;13.25;60.22
70200;BME280;57587;55.688;37.600;2022-09-28T15:08:19;98124.41;;;13.16;60.16
70200;BME280;57587;55.688;37.600;2022-09-28T15:10:49;98119.50;;;13.13;60.33
70200;BME280;57587;55.688;37.600;2022-09-28T15:13:23;98122.78;;;13.15;60.95
70200;BME280;57587;55.688;37.600;2022-09-28T15:16:07;98121.50;;;13.18;60.87
70200;BME280;57587;55.688;37.600;2022-09-28T15:21:39;98125.34;;;13.10;61.37
70200;BME280;57587;55.688;37.600;2022-09-28T15:24:30;98123.16;;;13.07;61.21
70200;BME280;57587;55.688;37.600;2022-09-28T15:27:03;98130.03;;;13.03;61.36
70200;BME280;57587;55.688;37.600;2022-09-28T15:29:39;98144.66;;;13.07;61.17
70200;BME280;57587;55.688;37.600;2022-09-28T15:32:22;98143.00;;;13.06;61.35
70200;BME280;57587;55.688;37.600;2022-09-28T15:34:49;98143.94;;;13.00;61.12
70200;BME280;57587;55.688;37.600;2022-09-28T15:37:22;98146.06;;;12.98;60.96
70200;BME280;57587;55.688;37.600;2022-09-28T15:39:51;98146.28;;;12.96;61.14
70200;BME280;57587;55.688;37.600;2022-09-28T15:42:19;98149.56;;;12.98;61.36
70200;BME280;57587;55.688;37.600;2022-09-28T15:45:02;98148.75;;;12.86;61.25
70200;BME280;57587;55.688;37.600;2022-09-28T15:47:33;98157.00;;;12.84;61.01
70200;BME280;57587;55.688;37.600;2022-09-28T15:50:03;98155.25;;;12.78;61.13
70200;BME280;57587;55.688;37.600;2022-09-28T15:52:55;98153.63;;;12.77;61.29
70200;BME280;57587;55.688;37.600;2022-09-28T15:55:38;98161.53;;;12.72;61.08
70200;BME280;57587;55.688;37.600;2022-09-28T16:00:38;98164.13;;;12.67;60.82
70200;BME280;57587;55.688;37.600;2022-09-28T16:11:23;98156.06;;;12.79;59.85
70200;BME280;57587;55.688;37.600;2022-09-28T16:14:01;98156.66;;;12.81;59.00
70200;BME280;57587;55.688;37.600;2022-09-28T16:16:34;98162.84;;;12.81;59.15
70200;BME280;57587;55.688;37.600;2022-09-28T16:19:03;98160.16;;;12.81;59.03
70200;BME280;57587;55.688;37.600;2022-09-28T16:21:46;98165.06;;;12.84;59.28
70200;BME280;57587;55.688;37.600;2022-09-28T16:24:26;98162.72;;;12.88;58.95
70200;BME280;57587;55.688;37.600;2022-09-28T16:26:59;98161.34;;;12.85;58.63
70200;BME280;57587;55.688;37.600;2022-09-28T16:37:36;98168.56;;;12.85;58.23